메인 페이지
METAR-TAF:

METAR-TAF

공항 :

Dubbo, 오스트레일리아

위도: 32-12S, 경도: 148-34E, 고도: 275m

현재 날씨관측

예보는 31분 전, 13:30시(UTC)에 발표되었습니다.
남남동11kt
온도 14°C
습도 63%
기압 1023 hPa
시정 10km 이상

METAR: YSDU 141330Z AUTO 15011KT 9999 // NCD 14/07 Q1023 RF00.0/000.0

시각: 00:01 (14:01 UTC)

예보

예보는 2 시간 44분 전, 11:17시(UTC)에 발표되었습니다.
예보 대상 시간: 14일 12시부터 15일 06시까지 (UTC)
남남동6kt
시정 10km 이상
1500m 미만 상공 구름 및 적란운 없음

TAF: YSDU 141117Z 1412/1506 15006KT CAVOK

4,000개 이상의 공항 관측 자료 및 예보 (METAR 및 TAF 보고).

지도상에서 검색 가능한 기상관측소가 노란 점과 빨간 점으로 표시되어 있습니다.

기상관측소 명을 보려면 표시 위로 마우스를 이동하세요.

날씨 관측과 예보를 보려면 클릭하세요.

지도 변경 : 확대하려면 엑스 표시가 있는 녹색 버튼, 축소하려면 빼기 표시가 있는 녹색 버튼, 다음 페이지의 지도를 보려면 녹색 화살표를 클릭하세요.


METAR-TAF: